Time;durP1;ratioP1;P1;durP2;ratioP2;P2;SDS_P1;SDS_P2;PMS_P1;PMS_P2;Temp;Humidity;BMP_temperature;BMP_pressure;BME280_temperature;BME280_humidity;BME280_pressure;Samples;Min_cycle;Max_cycle;Signal;HPM_P1;HPM_P2
2024/01/24 00:01:45;;;;;;;0.10;0.10;;;;;;;;;;10307572;28;20595;-69
2024/01/24 00:06:46;;;;;;;0.55;0.10;;;;;;;;;;10288961;28;20223;-69
2024/01/24 00:11:47;;;;;;;0.10;0.10;;;;;;;;;;10318618;28;20191;-69
2024/01/24 00:16:48;;;;;;;0.82;0.28;;;;;;;;;;10314970;28;20240;-68
2024/01/24 00:21:49;;;;;;;1.27;0.10;;;;;;;;;;10321980;28;20185;-68
2024/01/24 00:26:50;;;;;;;1.83;0.20;;;;;;;;;;10322717;28;20213;-69
2024/01/24 00:31:53;;;;;;;0.10;0.10;;;;;;;;;;10326520;28;20240;-69
2024/01/24 00:36:54;;;;;;;1.55;0.20;;;;;;;;;;10325293;28;20221;-69
2024/01/24 00:41:58;;;;;;;0.10;0.10;;;;;;;;;;10321113;28;20196;-68
2024/01/24 00:46:59;;;;;;;0.52;0.10;;;;;;;;;;10321074;28;20212;-69
2024/01/24 00:52:00;;;;;;;0.60;0.10;;;;;;;;;;10317677;28;20193;-69
2024/01/24 00:57:01;;;;;;;0.10;0.10;;;;;;;;;;10326959;28;20583;-68
2024/01/24 01:02:02;;;;;;;0.63;0.32;;;;;;;;;;10317563;28;20212;-69
2024/01/24 01:07:04;;;;;;;0.32;0.10;;;;;;;;;;10319129;28;20262;-68
2024/01/24 01:12:05;;;;;;;0.30;0.10;;;;;;;;;;10332890;28;20616;-69
2024/01/24 01:17:06;;;;;;;0.10;0.10;;;;;;;;;;10328800;28;20271;-68
2024/01/24 01:22:07;;;;;;;0.10;0.10;;;;;;;;;;10316249;28;20197;-69
2024/01/24 01:27:08;;;;;;;0.10;0.10;;;;;;;;;;10305402;28;20227;-68
2024/01/24 01:32:10;;;;;;;1.15;0.10;;;;;;;;;;10313451;28;20233;-68
2024/01/24 01:37:11;;;;;;;0.80;0.25;;;;;;;;;;10290030;28;20834;-68
2024/01/24 01:42:12;;;;;;;0.10;0.10;;;;;;;;;;10291552;28;20181;-68
2024/01/24 01:47:14;;;;;;;0.20;0.20;;;;;;;;;;10293791;28;20596;-69
2024/01/24 01:52:16;;;;;;;0.10;0.10;;;;;;;;;;10264771;28;20260;-69
2024/01/24 01:57:17;;;;;;;0.10;0.10;;;;;;;;;;10271118;28;20217;-68
2024/01/24 02:02:18;;;;;;;0.10;0.10;;;;;;;;;;10285665;28;20751;-68
2024/01/24 02:07:19;;;;;;;0.10;0.10;;;;;;;;;;10276718;28;20221;-68
2024/01/24 02:12:20;;;;;;;0.10;0.10;;;;;;;;;;10264947;28;20224;-69
2024/01/24 02:17:21;;;;;;;0.10;0.10;;;;;;;;;;10270410;28;20232;-68
2024/01/24 02:22:22;;;;;;;0.00;0.00;;;;;;;;;;10247305;28;20202;-69
2024/01/24 02:27:23;;;;;;;0.10;0.10;;;;;;;;;;10254534;28;20209;-68
2024/01/24 02:32:24;;;;;;;0.10;0.10;;;;;;;;;;10254500;28;20233;-69
2024/01/24 02:37:25;;;;;;;0.10;0.10;;;;;;;;;;10257736;28;20700;-69
2024/01/24 02:42:26;;;;;;;0.00;0.00;;;;;;;;;;10250829;28;20194;-69
2024/01/24 02:47:27;;;;;;;0.10;0.10;;;;;;;;;;10260925;28;20238;-69
2024/01/24 02:52:28;;;;;;;0.10;0.10;;;;;;;;;;10245820;28;20189;-69
2024/01/24 02:57:29;;;;;;;0.20;0.20;;;;;;;;;;10242784;28;20316;-70
2024/01/24 03:02:30;;;;;;;0.08;0.08;;;;;;;;;;10269807;28;20223;-70
2024/01/24 03:07:32;;;;;;;0.10;0.10;;;;;;;;;;10259700;28;20245;-70
2024/01/24 03:12:33;;;;;;;0.43;0.10;;;;;;;;;;10266802;28;20189;-70
2024/01/24 03:17:34;;;;;;;0.25;0.10;;;;;;;;;;10264667;28;20212;-70
2024/01/24 03:22:35;;;;;;;0.08;0.08;;;;;;;;;;10250492;28;20201;-69
2024/01/24 03:27:38;;;;;;;0.22;0.22;;;;;;;;;;10266046;28;20210;-70
2024/01/24 03:32:39;;;;;;;0.22;0.20;;;;;;;;;;10270002;28;20711;-70
2024/01/24 03:37:40;;;;;;;0.60;0.10;;;;;;;;;;10275230;28;20212;-69
2024/01/24 03:42:42;;;;;;;0.10;0.10;;;;;;;;;;10282854;28;20181;-70
2024/01/24 03:47:44;;;;;;;0.03;0.03;;;;;;;;;;10266801;28;20325;-70
2024/01/24 03:52:45;;;;;;;0.10;0.10;;;;;;;;;;10276587;28;20213;-69
2024/01/24 03:57:46;;;;;;;0.75;0.10;;;;;;;;;;10276303;28;20205;-69
2024/01/24 04:02:47;;;;;;;0.10;0.10;;;;;;;;;;10256984;28;20213;-69
2024/01/24 04:07:48;;;;;;;0.10;0.10;;;;;;;;;;10275361;28;20220;-69
2024/01/24 04:12:49;;;;;;;0.00;0.00;;;;;;;;;;10270135;28;20215;-70
2024/01/24 04:17:50;;;;;;;0.10;0.10;;;;;;;;;;10263796;28;20344;-70
2024/01/24 04:22:51;;;;;;;0.10;0.10;;;;;;;;;;10272780;28;20200;-69
2024/01/24 04:27:52;;;;;;;0.00;0.00;;;;;;;;;;10285365;28;20217;-70
2024/01/24 04:32:53;;;;;;;0.00;0.00;;;;;;;;;;10281874;28;20232;-70
2024/01/24 04:37:55;;;;;;;0.00;0.00;;;;;;;;;;10279215;28;20212;-70
2024/01/24 04:42:56;;;;;;;0.00;0.00;;;;;;;;;;10318946;28;20217;-69
2024/01/24 04:47:57;;;;;;;0.00;0.00;;;;;;;;;;10304710;28;20303;-69
2024/01/24 04:52:58;;;;;;;0.55;0.00;;;;;;;;;;10305269;28;20216;-69
2024/01/24 04:57:59;;;;;;;0.10;0.10;;;;;;;;;;10301829;28;20715;-69
2024/01/24 05:03:00;;;;;;;2.33;0.10;;;;;;;;;;10294326;28;20217;-69
2024/01/24 05:08:01;;;;;;;0.45;0.10;;;;;;;;;;10315853;28;20271;-69
2024/01/24 05:13:02;;;;;;;0.00;0.00;;;;;;;;;;10309260;28;20209;-69
2024/01/24 05:18:04;;;;;;;0.10;0.10;;;;;;;;;;10308582;28;20219;-69
2024/01/24 05:23:05;;;;;;;0.10;0.00;;;;;;;;;;10310432;28;20223;-69
2024/01/24 05:28:06;;;;;;;0.00;0.00;;;;;;;;;;10319278;28;20216;-69
2024/01/24 05:33:07;;;;;;;0.10;0.10;;;;;;;;;;10311920;28;20242;-69
2024/01/24 05:38:08;;;;;;;0.10;0.10;;;;;;;;;;10312649;28;20623;-69
2024/01/24 05:43:09;;;;;;;0.10;0.10;;;;;;;;;;10266635;28;20205;-69
2024/01/24 05:48:10;;;;;;;0.10;0.10;;;;;;;;;;10306061;28;20694;-69
2024/01/24 05:53:11;;;;;;;1.65;0.10;;;;;;;;;;10324639;28;20283;-69
2024/01/24 05:58:12;;;;;;;0.10;0.10;;;;;;;;;;10319675;28;20239;-69
2024/01/24 06:03:13;;;;;;;0.10;0.10;;;;;;;;;;10321855;28;20216;-69
2024/01/24 06:08:14;;;;;;;0.20;0.20;;;;;;;;;;10316529;28;20208;-69
2024/01/24 06:13:15;;;;;;;0.10;0.10;;;;;;;;;;10304589;28;20872;-69
2024/01/24 06:18:16;;;;;;;;;;;;;;;;;;10303952;28;21432;-70
2024/01/24 06:23:17;;;;;;;5.97;0.30;;;;;;;;;;10290813;28;20195;-71
2024/01/24 06:28:18;;;;;;;;;;;;;;;;;;10310838;28;20101;-71
2024/01/24 06:33:19;;;;;;;;;;;;;;;;;;10305665;28;19995;-72
2024/01/24 06:38:20;;;;;;;1.20;0.30;;;;;;;;;;10298841;28;20882;-71
2024/01/24 06:43:21;;;;;;;1.08;0.35;;;;;;;;;;10307143;28;20192;-70
2024/01/24 06:48:22;;;;;;;0.32;0.25;;;;;;;;;;10313806;28;20204;-70
2024/01/24 06:53:24;;;;;;;1.20;0.30;;;;;;;;;;10304136;28;20602;-70
2024/01/24 06:58:25;;;;;;;2.47;0.35;;;;;;;;;;10282306;28;20248;-70
2024/01/24 07:03:27;;;;;;;3.03;0.40;;;;;;;;;;10296602;28;20236;-70
2024/01/24 07:08:28;;;;;;;1.75;0.38;;;;;;;;;;10300262;28;20309;-71
2024/01/24 07:13:29;;;;;;;4.80;0.40;;;;;;;;;;10308362;28;20352;-71
2024/01/24 07:18:34;;;;;;;3.28;0.40;;;;;;;;;;10288943;28;21053;-69
2024/01/24 07:23:35;;;;;;;3.25;0.30;;;;;;;;;;10273400;28;20193;-70
2024/01/24 07:28:36;;;;;;;0.63;0.30;;;;;;;;;;10304286;28;20759;-70
2024/01/24 07:33:38;;;;;;;1.15;0.40;;;;;;;;;;10276023;28;20241;-70
2024/01/24 07:38:39;;;;;;;1.45;0.20;;;;;;;;;;10287462;28;20220;-71
2024/01/24 07:43:40;;;;;;;2.83;0.40;;;;;;;;;;10288224;28;20196;-70
2024/01/24 07:48:42;;;;;;;1.92;0.50;;;;;;;;;;10287656;28;20680;-70
2024/01/24 07:53:44;;;;;;;2.10;0.50;;;;;;;;;;10289150;28;20216;-70
2024/01/24 07:58:45;;;;;;;2.40;0.70;;;;;;;;;;10291651;28;20822;-69
2024/01/24 08:03:46;;;;;;;4.78;0.35;;;;;;;;;;10295706;28;20757;-69
2024/01/24 08:08:47;;;;;;;7.03;0.55;;;;;;;;;;10300989;28;20213;-70
2024/01/24 08:13:49;;;;;;;1.95;0.60;;;;;;;;;;10273798;28;20917;-69
2024/01/24 08:18:51;;;;;;;4.63;0.70;;;;;;;;;;10280437;28;20221;-69
2024/01/24 08:23:52;;;;;;;2.92;0.70;;;;;;;;;;10286706;28;20278;-69
2024/01/24 08:28:53;;;;;;;6.32;0.85;;;;;;;;;;10287160;28;20664;-70
2024/01/24 08:33:54;;;;;;;6.15;1.00;;;;;;;;;;10278823;28;20241;-72
2024/01/24 08:38:55;;;;;;;7.25;1.45;;;;;;;;;;10298348;28;20197;-70
2024/01/24 08:43:59;;;;;;;5.90;1.17;;;;;;;;;;10293964;28;20570;-70
2024/01/24 08:49:01;;;;;;;15.15;1.60;;;;;;;;;;10293471;28;20224;-70
2024/01/24 08:54:02;;;;;;;3.50;1.10;;;;;;;;;;10295695;28;20617;-69
2024/01/24 08:59:03;;;;;;;10.32;1.08;;;;;;;;;;10306357;28;20210;-70
2024/01/24 09:04:05;;;;;;;4.22;1.10;;;;;;;;;;10297088;28;20303;-70
2024/01/24 09:09:06;;;;;;;;;;;;;;;;;;10298394;28;20224;-70
2024/01/24 09:14:07;;;;;;;;;;;;;;;;;;10295947;28;20317;-71
2024/01/24 09:19:08;;;;;;;;;;;;;;;;;;10276200;28;19919;-70
2024/01/24 09:24:09;;;;;;;;;;;;;;;;;;10279312;28;19952;-71
2024/01/24 09:29:12;;;;;;;;;;;;;;;;;;10307842;28;19914;-70
2024/01/24 09:34:13;;;;;;;;;;;;;;;;;;10306606;28;19925;-71
2024/01/24 09:39:14;;;;;;;;;;;;;;;;;;10304120;28;19920;-71
2024/01/24 09:44:15;;;;;;;;;;;;;;;;;;10300405;28;19986;-70
2024/01/24 09:49:18;;;;;;;;;;;;;;;;;;10297508;28;20303;-70
2024/01/24 09:54:19;;;;;;;;;;;;;;;;;;10307724;28;19913;-70
2024/01/24 09:59:20;;;;;;;;;;;;;;;;;;10301562;28;20000;-70
2024/01/24 10:04:21;;;;;;;;;;;;;;;;;;10288059;28;20068;-71
2024/01/24 10:09:22;;;;;;;;;;;;;;;;;;10307058;28;21990;-70
2024/01/24 10:14:23;;;;;;;;;;;;;;;;;;10303524;28;20261;-70
2024/01/24 10:19:24;;;;;;;;;;;;;;;;;;10297224;28;19945;-69
2024/01/24 10:24:27;;;;;;;;;;;;;;;;;;10286260;28;19933;-70
2024/01/24 10:29:29;;;;;;;;;;;;;;;;;;10295245;28;20107;-70
2024/01/24 10:34:30;;;;;;;;;;;;;;;;;;10290361;28;19938;-70
2024/01/24 10:39:31;;;;;;;;;;;;;;;;;;10278241;28;19985;-70
2024/01/24 10:44:32;;;;;;;;;;;;;;;;;;10285833;28;20323;-70
2024/01/24 10:49:32;;;;;;;;;;;;;;;;;;10298599;28;19909;-70
2024/01/24 10:54:33;;;;;;;;;;;;;;;;;;10292433;28;19917;-70
2024/01/24 10:59:34;;;;;;;;;;;;;;;;;;10299111;28;19914;-70
2024/01/24 11:04:36;;;;;;;;;;;;;;;;;;10306556;28;19914;-70
2024/01/24 11:09:38;;;;;;;;;;;;;;;;;;10290985;28;20396;-70
2024/01/24 11:14:39;;;;;;;;;;;;;;;;;;10305526;28;19920;-70
2024/01/24 11:19:39;;;;;;;;;;;;;;;;;;10298820;28;19909;-70
2024/01/24 11:24:41;;;;;;;;;;;;;;;;;;10281853;28;19909;-69
2024/01/24 11:29:42;;;;;;;;;;;;;;;;;;10297952;28;19924;-71
2024/01/24 11:34:43;;;;;;;;;;;;;;;;;;10304165;28;19922;-70
2024/01/24 11:39:44;;;;;;;;;;;;;;;;;;10307677;28;20195;-70
2024/01/24 11:44:45;;;;;;;;;;;;;;;;;;10286749;28;19916;-70
2024/01/24 11:49:46;;;;;;;;;;;;;;;;;;10298524;28;19914;-70
2024/01/24 11:54:47;;;;;;;;;;;;;;;;;;10295902;28;21157;-70
2024/01/24 11:59:48;;;;;;;;;;;;;;;;;;10286972;28;19913;-70
2024/01/24 12:04:49;;;;;;;;;;;;;;;;;;10295859;28;19922;-70
2024/01/24 12:09:50;;;;;;;;;;;;;;;;;;10311038;28;19909;-71
2024/01/24 12:14:52;;;;;;;;;;;;;;;;;;10278480;28;19940;-71
2024/01/24 12:19:53;;;;;;;;;;;;;;;;;;10298679;28;20678;-71
2024/01/24 12:24:54;;;;;;;;;;;;;;;;;;10279846;28;19967;-71
2024/01/24 12:29:55;;;;;;;8.50;1.30;;;;;;;;;;10298233;28;20216;-71
2024/01/24 12:38:02;;;;;;;7.05;1.70;;;;;;;;;;10483819;27;20611;-70
2024/01/24 12:43:02;;;;;;;10.68;1.63;;;;;;;;;;10462262;28;20721;-70
2024/01/24 12:48:09;;;;;;;13.07;1.63;;;;;;;;;;10456541;28;20258;-70
2024/01/24 12:53:09;;;;;;;7.28;1.10;;;;;;;;;;10466270;28;21035;-70
2024/01/24 12:58:09;;;;;;;12.27;1.98;;;;;;;;;;10455756;28;20202;-69
2024/01/24 13:03:09;;;;;;;9.57;1.77;;;;;;;;;;10445629;28;20213;-70
2024/01/24 13:08:10;;;;;;;11.60;1.45;;;;;;;;;;10453728;28;20202;-70
2024/01/24 13:13:10;;;;;;;5.03;1.50;;;;;;;;;;10454924;28;20190;-70
2024/01/24 13:18:11;;;;;;;7.57;1.17;;;;;;;;;;10449249;28;20637;-70
2024/01/24 13:23:11;;;;;;;15.23;1.65;;;;;;;;;;10452526;28;20210;-70
2024/01/24 13:28:11;;;;;;;8.73;1.08;;;;;;;;;;10451962;28;20206;-70
2024/01/24 13:33:12;;;;;;;6.18;1.08;;;;;;;;;;10455521;28;20209;-69
2024/01/24 13:38:12;;;;;;;5.13;1.10;;;;;;;;;;10457577;28;20977;-70
2024/01/24 13:43:12;;;;;;;10.87;1.63;;;;;;;;;;10456160;28;20186;-69
2024/01/24 13:48:12;;;;;;;6.57;1.40;;;;;;;;;;10433025;28;20455;-69
2024/01/24 13:53:13;;;;;;;8.38;0.93;;;;;;;;;;10432180;28;20240;-70
2024/01/24 13:58:13;;;;;;;6.68;1.23;;;;;;;;;;10428446;28;20206;-70
2024/01/24 14:03:14;;;;;;;13.90;1.05;;;;;;;;;;10425147;28;20207;-69
2024/01/24 14:08:14;;;;;;;12.43;1.40;;;;;;;;;;10422497;28;20309;-69
2024/01/24 14:13:15;;;;;;;6.55;1.25;;;;;;;;;;10429563;28;20678;-69
2024/01/24 14:18:16;;;;;;;5.28;1.45;;;;;;;;;;10426495;28;20233;-69
2024/01/24 14:23:16;;;;;;;4.88;1.10;;;;;;;;;;10425737;28;20248;-70
2024/01/24 14:28:16;;;;;;;7.43;1.47;;;;;;;;;;10425225;28;20640;-69
2024/01/24 14:33:17;;;;;;;8.15;1.48;;;;;;;;;;10423115;28;21086;-69
2024/01/24 14:38:18;;;;;;;6.40;0.90;;;;;;;;;;10433057;28;20250;-69
2024/01/24 14:43:18;;;;;;;10.40;1.58;;;;;;;;;;10421881;28;20195;-70
2024/01/24 14:48:18;;;;;;;7.82;1.50;;;;;;;;;;10429444;28;20727;-69
2024/01/24 14:53:19;;;;;;;6.57;0.93;;;;;;;;;;10427322;28;20179;-69
2024/01/24 14:58:19;;;;;;;8.70;1.45;;;;;;;;;;10422137;28;20466;-70
2024/01/24 15:03:19;;;;;;;9.23;1.80;;;;;;;;;;10427673;28;20309;-69
2024/01/24 15:08:19;;;;;;;7.18;1.15;;;;;;;;;;10423780;28;20198;-69
2024/01/24 15:13:20;;;;;;;8.32;1.38;;;;;;;;;;10425666;28;20251;-69
2024/01/24 15:18:20;;;;;;;3.53;0.93;;;;;;;;;;10418297;28;20211;-69
2024/01/24 15:23:20;;;;;;;10.48;1.90;;;;;;;;;;10424731;28;20191;-69
2024/01/24 15:28:20;;;;;;;8.10;0.73;;;;;;;;;;10418538;28;20242;-68
2024/01/24 15:33:21;;;;;;;6.97;1.42;;;;;;;;;;10401848;28;20464;-69
2024/01/24 15:38:21;;;;;;;16.98;1.77;;;;;;;;;;10420185;28;20214;-69
2024/01/24 15:43:21;;;;;;;9.80;1.50;;;;;;;;;;10422835;28;20186;-69
2024/01/24 15:48:21;;;;;;;5.93;1.53;;;;;;;;;;10423131;28;20198;-69
2024/01/24 15:53:22;;;;;;;9.13;2.30;;;;;;;;;;10421530;28;20449;-69
2024/01/24 15:58:22;;;;;;;5.97;0.82;;;;;;;;;;10407699;28;20206;-69
2024/01/24 16:03:24;;;;;;;8.48;1.75;;;;;;;;;;10420082;28;21181;-69
2024/01/24 16:08:24;;;;;;;8.05;1.10;;;;;;;;;;10430851;28;20194;-69
2024/01/24 16:13:24;;;;;;;10.55;1.30;;;;;;;;;;10424733;28;20851;-69
2024/01/24 16:18:24;;;;;;;9.88;1.25;;;;;;;;;;10421414;28;20221;-69
2024/01/24 16:23:25;;;;;;;7.53;1.48;;;;;;;;;;10415157;28;20568;-69
2024/01/24 16:28:25;;;;;;;13.02;1.30;;;;;;;;;;10425609;28;20201;-68
2024/01/24 16:33:25;;;;;;;7.20;1.38;;;;;;;;;;10420011;28;20226;-68
2024/01/24 16:38:26;;;;;;;9.95;1.17;;;;;;;;;;10413138;28;20891;-69
2024/01/24 16:43:30;;;;;;;6.28;1.08;;;;;;;;;;10421448;28;20223;-69
2024/01/24 16:48:31;;;;;;;3.92;1.05;;;;;;;;;;10421500;28;20277;-69
2024/01/24 16:53:35;;;;;;;;;;;;;;;;;;10430588;28;20104;-69
2024/01/24 16:58:35;;;;;;;;;;;;;;;;;;10422475;28;20367;-69
2024/01/24 17:03:35;;;;;;;;;;;;;;;;;;10420517;28;19921;-70
2024/01/24 17:08:36;;;;;;;;;;;;;;;;;;10425622;28;19916;-69
2024/01/24 17:13:36;;;;;;;;;;;;;;;;;;10431848;28;19912;-70
2024/01/24 17:18:37;;;;;;;;;;;;;;;;;;10426589;28;19920;-68
2024/01/24 17:23:38;;;;;;;;;;;;;;;;;;10438980;28;19915;-69
2024/01/24 17:28:38;;;;;;;;;;;;;;;;;;10403157;28;20458;-68
2024/01/24 17:33:38;;;;;;;7.88;1.23;;;;;;;;;;10424981;28;20355;-69
2024/01/24 17:38:38;;;;;;;;;;;;;;;;;;10429689;28;20086;-69
2024/01/24 17:43:39;;;;;;;;;;;;;;;;;;10424264;28;19919;-69
2024/01/24 17:48:39;;;;;;;;;;;;;;;;;;10429823;28;20019;-69
2024/01/24 17:53:39;;;;;;;;;;;;;;;;;;10435616;28;20002;-70
2024/01/24 17:58:39;;;;;;;;;;;;;;;;;;10433453;28;19924;-69
2024/01/24 18:03:39;;;;;;;;;;;;;;;;;;10432065;28;19913;-69
2024/01/24 18:08:40;;;;;;;;;;;;;;;;;;10429825;28;19915;-70
2024/01/24 18:13:40;;;;;;;;;;;;;;;;;;10432621;28;19956;-69
2024/01/24 18:18:40;;;;;;;;;;;;;;;;;;10429482;28;19971;-69
2024/01/24 18:23:40;;;;;;;;;;;;;;;;;;10425679;28;19916;-69
2024/01/24 18:28:40;;;;;;;;;;;;;;;;;;10425051;28;20158;-69
2024/01/24 18:33:41;;;;;;;;;;;;;;;;;;10406513;28;19929;-70
2024/01/24 18:38:42;;;;;;;;;;;;;;;;;;10424475;28;20487;-69
2024/01/24 18:43:43;;;;;;;;;;;;;;;;;;10405255;28;19908;-69
2024/01/24 18:48:45;;;;;;;;;;;;;;;;;;10418953;28;19912;-69
2024/01/24 18:53:45;;;;;;;;;;;;;;;;;;10434254;28;19916;-69
2024/01/24 18:58:46;;;;;;;;;;;;;;;;;;10420305;28;19912;-69
2024/01/24 19:03:54;;;;;;;;;;;;;;;;;;10429530;28;20506;-69
2024/01/24 19:08:54;;;;;;;;;;;;;;;;;;10425135;28;23347;-69
2024/01/24 19:13:54;;;;;;;;;;;;;;;;;;10416721;28;19916;-68
2024/01/24 19:18:54;;;;;;;;;;;;;;;;;;10421908;28;19932;-72
2024/01/24 19:23:55;;;;;;;;;;;;;;;;;;10426857;28;19916;-68
2024/01/24 19:28:55;;;;;;;;;;;;;;;;;;10426235;28;19908;-69
2024/01/24 19:33:55;;;;;;;;;;;;;;;;;;10421961;28;19924;-69
2024/01/24 19:39:00;;;;;;;;;;;;;;;;;;10422598;28;20141;-69
2024/01/24 19:44:00;;;;;;;;;;;;;;;;;;10411212;28;19920;-68
2024/01/24 19:49:00;;;;;;;;;;;;;;;;;;10422393;28;19955;-69
2024/01/24 19:54:00;;;;;;;;;;;;;;;;;;10428813;28;19924;-68
2024/01/24 19:59:02;;;;;;;;;;;;;;;;;;10419602;28;19909;-68
2024/01/24 20:04:03;;;;;;;;;;;;;;;;;;10398297;28;19924;-68
2024/01/24 20:09:03;;;;;;;;;;;;;;;;;;10431789;28;19913;-69
2024/01/24 20:14:03;;;;;;;;;;;;;;;;;;10404767;28;19916;-67
2024/01/24 20:19:04;;;;;;;;;;;;;;;;;;10419389;28;19912;-68
2024/01/24 20:24:05;;;;;;;;;;;;;;;;;;10414468;28;19971;-68
2024/01/24 20:29:05;;;;;;;;;;;;;;;;;;10416532;28;19917;-68
2024/01/24 20:34:05;;;;;;;;;;;;;;;;;;10412142;28;19957;-68
2024/01/24 20:39:05;;;;;;;;;;;;;;;;;;10422637;28;19962;-68
2024/01/24 20:44:06;;;;;;;;;;;;;;;;;;10420009;28;19916;-68
2024/01/24 20:49:06;;;;;;;;;;;;;;;;;;10423464;28;19954;-68
2024/01/24 20:54:08;;;;;;;;;;;;;;;;;;10410321;28;19923;-69
2024/01/24 20:59:08;;;;;;;;;;;;;;;;;;10437234;28;19908;-69
2024/01/24 21:04:08;;;;;;;;;;;;;;;;;;10418622;28;19913;-68
2024/01/24 21:09:09;;;;;;;;;;;;;;;;;;10432687;28;19912;-68
2024/01/24 21:14:09;;;;;;;;;;;;;;;;;;10440555;28;19916;-68
2024/01/24 21:19:15;;;;;;;;;;;;;;;;;;10434588;28;20033;-68
2024/01/24 21:24:16;;;;;;;;;;;;;;;;;;10439562;28;19919;-68
2024/01/24 21:29:16;;;;;;;;;;;;;;;;;;10450626;28;20428;-69
2024/01/24 21:34:17;;;;;;;;;;;;;;;;;;10444759;28;19925;-68
2024/01/24 21:39:17;;;;;;;;;;;;;;;;;;10439775;28;19912;-70
2024/01/24 21:44:17;;;;;;;;;;;;;;;;;;10431762;28;20478;-68
2024/01/24 21:49:17;;;;;;;;;;;;;;;;;;10438647;28;20726;-68
2024/01/24 21:54:19;;;;;;;5.32;1.33;;;;;;;;;;10448900;28;19935;-68
2024/01/24 21:59:19;;;;;;;9.63;1.45;;;;;;;;;;10436585;28;20211;-69
2024/01/24 22:04:19;;;;;;;6.00;0.82;;;;;;;;;;10433028;28;20226;-69
2024/01/24 22:09:19;;;;;;;11.13;1.30;;;;;;;;;;10440000;28;20213;-69
2024/01/24 22:14:20;;;;;;;11.40;0.93;;;;;;;;;;10437391;28;20214;-71
2024/01/24 22:19:20;;;;;;;7.22;0.98;;;;;;;;;;10437778;28;20214;-68
2024/01/24 22:24:20;;;;;;;12.57;1.83;;;;;;;;;;10435737;28;20194;-69
2024/01/24 22:29:21;;;;;;;10.18;1.38;;;;;;;;;;10447631;28;20210;-69
2024/01/24 22:34:21;;;;;;;10.50;1.17;;;;;;;;;;10442818;28;20238;-68
2024/01/24 22:39:21;;;;;;;;;;;;;;;;;;10434946;28;20279;-69
2024/01/24 22:44:21;;;;;;;;;;;;;;;;;;10430216;28;19956;-68
2024/01/24 22:49:22;;;;;;;6.80;0.98;;;;;;;;;;10440497;28;21160;-69
2024/01/24 22:54:22;;;;;;;9.38;1.60;;;;;;;;;;10439182;28;20217;-68
2024/01/24 22:59:23;;;;;;;4.03;0.70;;;;;;;;;;10447797;28;20040;-69
2024/01/24 23:04:23;;;;;;;9.15;1.58;;;;;;;;;;10430522;28;20302;-69
2024/01/24 23:09:23;;;;;;;13.25;0.77;;;;;;;;;;10429365;28;20214;-68
2024/01/24 23:14:24;;;;;;;8.27;1.40;;;;;;;;;;10441197;28;20260;-70
2024/01/24 23:19:24;;;;;;;6.90;0.95;;;;;;;;;;10432579;28;20195;-70
2024/01/24 23:24:24;;;;;;;9.27;1.63;;;;;;;;;;10435935;28;20187;-69
2024/01/24 23:29:24;;;;;;;;;;;;;;;;;;10435962;28;20207;-69
2024/01/24 23:34:24;;;;;;;;;;;;;;;;;;10439472;28;20299;-69
2024/01/24 23:39:25;;;;;;;;;;;;;;;;;;10432497;28;19924;-69
2024/01/24 23:44:25;;;;;;;;;;;;;;;;;;10440834;28;19951;-69
2024/01/24 23:49:25;;;;;;;;;;;;;;;;;;10439729;28;19916;-69
2024/01/24 23:54:25;;;;;;;;;;;;;;;;;;10435134;28;19912;-69
2024/01/24 23:59:25;;;;;;;;;;;;;;;;;;10435257;28;19970;-69
